sensor_id;sensor_type;location;lat;lon;timestamp;temperature;humidity
10873;DHT22;34586;53.616;10.032;2023-06-24T00:01:36;16.30;99.90
10873;DHT22;34586;53.616;10.032;2023-06-24T00:04:02;16.40;99.90
10873;DHT22;34586;53.616;10.032;2023-06-24T00:06:28;16.40;99.90
10873;DHT22;34586;53.616;10.032;2023-06-24T00:08:53;16.30;99.90
10873;DHT22;34586;53.616;10.032;2023-06-24T00:11:30;16.30;99.90
10873;DHT22;34586;53.616;10.032;2023-06-24T00:13:55;16.30;99.90
10873;DHT22;34586;53.616;10.032;2023-06-24T00:16:21;16.30;99.90
10873;DHT22;34586;53.616;10.032;2023-06-24T00:18:56;16.40;99.90
10873;DHT22;34586;53.616;10.032;2023-06-24T00:21:24;16.20;99.90
10873;DHT22;34586;53.616;10.032;2023-06-24T00:23:55;16.20;99.90
10873;DHT22;34586;53.616;10.032;2023-06-24T00:26:21;16.20;99.90
10873;DHT22;34586;53.616;10.032;2023-06-24T00:28:47;16.10;99.90
10873;DHT22;34586;53.616;10.032;2023-06-24T00:31:12;16.10;99.90
10873;DHT22;34586;53.616;10.032;2023-06-24T00:33:38;16.10;99.90
10873;DHT22;34586;53.616;10.032;2023-06-24T00:36:03;16.00;99.90
10873;DHT22;34586;53.616;10.032;2023-06-24T00:38:29;16.00;99.90
10873;DHT22;34586;53.616;10.032;2023-06-24T00:40:58;16.00;99.90
10873;DHT22;34586;53.616;10.032;2023-06-24T00:43:24;17.10;99.90
10873;DHT22;34586;53.616;10.032;2023-06-24T00:45:50;16.00;99.90
10873;DHT22;34586;53.616;10.032;2023-06-24T00:48:16;15.90;99.90
10873;DHT22;34586;53.616;10.032;2023-06-24T00:50:41;15.80;99.90
10873;DHT22;34586;53.616;10.032;2023-06-24T00:53:11;15.80;99.90
10873;DHT22;34586;53.616;10.032;2023-06-24T00:55:37;15.80;99.90
10873;DHT22;34586;53.616;10.032;2023-06-24T00:58:04;15.70;99.90
10873;DHT22;34586;53.616;10.032;2023-06-24T01:00:29;15.70;99.90
10873;DHT22;34586;53.616;10.032;2023-06-24T01:02:58;15.70;99.90
10873;DHT22;34586;53.616;10.032;2023-06-24T01:05:25;15.70;99.90
10873;DHT22;34586;53.616;10.032;2023-06-24T01:07:51;15.60;99.90
10873;DHT22;34586;53.616;10.032;2023-06-24T01:10:21;15.60;99.90
10873;DHT22;34586;53.616;10.032;2023-06-24T01:12:48;15.60;99.90
10873;DHT22;34586;53.616;10.032;2023-06-24T01:15:14;15.60;99.90
10873;DHT22;34586;53.616;10.032;2023-06-24T01:20:27;15.60;99.90
10873;DHT22;34586;53.616;10.032;2023-06-24T01:31:25;15.50;99.90
10873;DHT22;34586;53.616;10.032;2023-06-24T01:33:58;15.50;99.90
10873;DHT22;34586;53.616;10.032;2023-06-24T01:36:28;15.50;99.90
10873;DHT22;34586;53.616;10.032;2023-06-24T01:39:00;15.40;99.90
10873;DHT22;34586;53.616;10.032;2023-06-24T01:41:34;15.40;99.90
10873;DHT22;34586;53.616;10.032;2023-06-24T01:44:01;15.30;99.90
10873;DHT22;34586;53.616;10.032;2023-06-24T01:46:29;15.30;99.90
10873;DHT22;34586;53.616;10.032;2023-06-24T01:48:58;15.30;99.90
10873;DHT22;34586;53.616;10.032;2023-06-24T01:51:25;15.30;99.90
10873;DHT22;34586;53.616;10.032;2023-06-24T01:53:54;15.20;99.90
10873;DHT22;34586;53.616;10.032;2023-06-24T01:56:25;15.30;99.90
10873;DHT22;34586;53.616;10.032;2023-06-24T01:58:53;15.20;99.90
10873;DHT22;34586;53.616;10.032;2023-06-24T02:01:21;15.10;99.90
10873;DHT22;34586;53.616;10.032;2023-06-24T02:03:48;15.10;99.90
10873;DHT22;34586;53.616;10.032;2023-06-24T02:06:15;15.10;99.90
10873;DHT22;34586;53.616;10.032;2023-06-24T02:08:43;15.10;99.90
10873;DHT22;34586;53.616;10.032;2023-06-24T02:11:09;15.00;99.90
10873;DHT22;34586;53.616;10.032;2023-06-24T02:13:37;15.10;99.90
10873;DHT22;34586;53.616;10.032;2023-06-24T02:16:06;15.00;99.90
10873;DHT22;34586;53.616;10.032;2023-06-24T02:18:34;14.80;99.90
10873;DHT22;34586;53.616;10.032;2023-06-24T02:21:01;14.90;99.90
10873;DHT22;34586;53.616;10.032;2023-06-24T02:23:28;14.80;99.90
10873;DHT22;34586;53.616;10.032;2023-06-24T02:25:55;14.90;99.90
10873;DHT22;34586;53.616;10.032;2023-06-24T02:28:22;14.80;99.90
10873;DHT22;34586;53.616;10.032;2023-06-24T02:30:49;14.80;99.90
10873;DHT22;34586;53.616;10.032;2023-06-24T02:33:15;14.80;99.90
10873;DHT22;34586;53.616;10.032;2023-06-24T02:35:41;14.80;99.90
10873;DHT22;34586;53.616;10.032;2023-06-24T02:38:07;14.70;99.90
10873;DHT22;34586;53.616;10.032;2023-06-24T02:40:33;14.70;99.90
10873;DHT22;34586;53.616;10.032;2023-06-24T02:42:59;14.70;99.90
10873;DHT22;34586;53.616;10.032;2023-06-24T02:45:25;14.70;99.90
10873;DHT22;34586;53.616;10.032;2023-06-24T02:47:52;14.80;99.90
10873;DHT22;34586;53.616;10.032;2023-06-24T02:50:18;14.70;99.90
10873;DHT22;34586;53.616;10.032;2023-06-24T02:52:45;14.60;99.90
10873;DHT22;34586;53.616;10.032;2023-06-24T02:55:11;14.70;99.90
10873;DHT22;34586;53.616;10.032;2023-06-24T02:57:37;14.60;99.90
10873;DHT22;34586;53.616;10.032;2023-06-24T03:00:05;14.60;99.90
10873;DHT22;34586;53.616;10.032;2023-06-24T03:02:32;14.60;99.90
10873;DHT22;34586;53.616;10.032;2023-06-24T03:04:58;14.50;99.90
10873;DHT22;34586;53.616;10.032;2023-06-24T03:07:27;14.50;99.90
10873;DHT22;34586;53.616;10.032;2023-06-24T03:09:53;14.50;99.90
10873;DHT22;34586;53.616;10.032;2023-06-24T03:12:18;14.50;99.90
10873;DHT22;34586;53.616;10.032;2023-06-24T03:14:44;14.50;99.90
10873;DHT22;34586;53.616;10.032;2023-06-24T03:17:10;14.60;99.90
10873;DHT22;34586;53.616;10.032;2023-06-24T03:19:36;14.50;99.90
10873;DHT22;34586;53.616;10.032;2023-06-24T03:22:03;14.60;99.90
10873;DHT22;34586;53.616;10.032;2023-06-24T03:24:29;14.60;99.90
10873;DHT22;34586;53.616;10.032;2023-06-24T03:26:56;14.70;99.90
10873;DHT22;34586;53.616;10.032;2023-06-24T03:29:25;14.60;99.90
10873;DHT22;34586;53.616;10.032;2023-06-24T03:31:51;14.70;99.90
10873;DHT22;34586;53.616;10.032;2023-06-24T03:34:16;14.60;99.90
10873;DHT22;34586;53.616;10.032;2023-06-24T03:36:42;14.80;99.90
10873;DHT22;34586;53.616;10.032;2023-06-24T03:39:08;14.70;99.90
10873;DHT22;34586;53.616;10.032;2023-06-24T03:41:34;14.70;99.90
10873;DHT22;34586;53.616;10.032;2023-06-24T03:44:00;14.70;99.90
10873;DHT22;34586;53.616;10.032;2023-06-24T03:46:26;14.80;99.90
10873;DHT22;34586;53.616;10.032;2023-06-24T03:48:52;14.80;99.90
10873;DHT22;34586;53.616;10.032;2023-06-24T03:51:17;14.70;99.90
10873;DHT22;34586;53.616;10.032;2023-06-24T03:53:43;14.80;99.90
10873;DHT22;34586;53.616;10.032;2023-06-24T03:56:08;14.90;99.90
10873;DHT22;34586;53.616;10.032;2023-06-24T03:58:34;14.80;99.90
10873;DHT22;34586;53.616;10.032;2023-06-24T04:01:01;14.90;99.90
10873;DHT22;34586;53.616;10.032;2023-06-24T04:03:27;15.00;99.90
10873;DHT22;34586;53.616;10.032;2023-06-24T04:05:55;15.00;99.90
10873;DHT22;34586;53.616;10.032;2023-06-24T04:08:21;15.10;99.90
10873;DHT22;34586;53.616;10.032;2023-06-24T04:10:46;15.20;99.90
10873;DHT22;34586;53.616;10.032;2023-06-24T04:13:12;15.20;99.90
10873;DHT22;34586;53.616;10.032;2023-06-24T04:15:38;15.30;99.90
10873;DHT22;34586;53.616;10.032;2023-06-24T04:18:03;15.40;99.90
10873;DHT22;34586;53.616;10.032;2023-06-24T04:20:29;15.40;99.90
10873;DHT22;34586;53.616;10.032;2023-06-24T04:22:54;15.40;99.90
10873;DHT22;34586;53.616;10.032;2023-06-24T04:25:20;15.50;99.90
10873;DHT22;34586;53.616;10.032;2023-06-24T04:27:46;15.60;99.90
10873;DHT22;34586;53.616;10.032;2023-06-24T04:30:11;15.60;99.90
10873;DHT22;34586;53.616;10.032;2023-06-24T04:32:37;15.60;99.90
10873;DHT22;34586;53.616;10.032;2023-06-24T04:35:03;15.60;99.90
10873;DHT22;34586;53.616;10.032;2023-06-24T04:37:29;15.60;99.90
10873;DHT22;34586;53.616;10.032;2023-06-24T04:39:55;15.70;99.90
10873;DHT22;34586;53.616;10.032;2023-06-24T04:42:21;15.70;99.90
10873;DHT22;34586;53.616;10.032;2023-06-24T04:44:48;15.70;99.90
10873;DHT22;34586;53.616;10.032;2023-06-24T04:47:16;15.80;99.90
10873;DHT22;34586;53.616;10.032;2023-06-24T04:49:43;15.80;99.90
10873;DHT22;34586;53.616;10.032;2023-06-24T04:52:08;15.90;99.90
10873;DHT22;34586;53.616;10.032;2023-06-24T04:54:34;15.90;99.90
10873;DHT22;34586;53.616;10.032;2023-06-24T04:56:59;16.00;99.90
10873;DHT22;34586;53.616;10.032;2023-06-24T04:59:25;16.10;99.90
10873;DHT22;34586;53.616;10.032;2023-06-24T05:01:51;16.10;99.90
10873;DHT22;34586;53.616;10.032;2023-06-24T05:04:16;16.10;99.90
10873;DHT22;34586;53.616;10.032;2023-06-24T05:06:42;16.20;99.90
10873;DHT22;34586;53.616;10.032;2023-06-24T05:09:08;16.30;99.90
10873;DHT22;34586;53.616;10.032;2023-06-24T05:11:33;16.30;99.90
10873;DHT22;34586;53.616;10.032;2023-06-24T05:14:00;16.40;99.90
10873;DHT22;34586;53.616;10.032;2023-06-24T05:16:26;16.50;99.90
10873;DHT22;34586;53.616;10.032;2023-06-24T05:18:51;16.60;99.90
10873;DHT22;34586;53.616;10.032;2023-06-24T05:21:17;16.70;99.90
10873;DHT22;34586;53.616;10.032;2023-06-24T05:23:42;16.80;99.90
10873;DHT22;34586;53.616;10.032;2023-06-24T05:26:08;16.80;99.90
10873;DHT22;34586;53.616;10.032;2023-06-24T05:28:33;16.90;99.90
10873;DHT22;34586;53.616;10.032;2023-06-24T05:30:59;16.90;99.90
10873;DHT22;34586;53.616;10.032;2023-06-24T05:33:25;17.00;99.90
10873;DHT22;34586;53.616;10.032;2023-06-24T05:35:51;17.00;99.90
10873;DHT22;34586;53.616;10.032;2023-06-24T05:38:16;17.00;99.90
10873;DHT22;34586;53.616;10.032;2023-06-24T05:40:42;17.00;99.90
10873;DHT22;34586;53.616;10.032;2023-06-24T05:43:07;17.00;99.90
10873;DHT22;34586;53.616;10.032;2023-06-24T05:45:33;17.10;99.90
10873;DHT22;34586;53.616;10.032;2023-06-24T05:47:58;17.10;99.90
10873;DHT22;34586;53.616;10.032;2023-06-24T05:50:24;17.10;99.90
10873;DHT22;34586;53.616;10.032;2023-06-24T05:52:50;17.30;99.90
10873;DHT22;34586;53.616;10.032;2023-06-24T05:55:15;17.30;99.90
10873;DHT22;34586;53.616;10.032;2023-06-24T05:57:41;17.40;99.90
10873;DHT22;34586;53.616;10.032;2023-06-24T06:00:07;17.50;99.90
10873;DHT22;34586;53.616;10.032;2023-06-24T06:02:32;17.50;99.90
10873;DHT22;34586;53.616;10.032;2023-06-24T06:04:58;17.60;99.90
10873;DHT22;34586;53.616;10.032;2023-06-24T06:07:24;17.70;99.90
10873;DHT22;34586;53.616;10.032;2023-06-24T06:09:49;17.70;99.90
10873;DHT22;34586;53.616;10.032;2023-06-24T06:12:15;17.80;99.90
10873;DHT22;34586;53.616;10.032;2023-06-24T06:14:40;17.80;99.90
10873;DHT22;34586;53.616;10.032;2023-06-24T06:17:06;17.90;99.90
10873;DHT22;34586;53.616;10.032;2023-06-24T06:19:31;18.00;99.90
10873;DHT22;34586;53.616;10.032;2023-06-24T06:21:57;18.20;99.90
10873;DHT22;34586;53.616;10.032;2023-06-24T06:24:23;18.30;99.90
10873;DHT22;34586;53.616;10.032;2023-06-24T06:26:48;18.40;99.90
10873;DHT22;34586;53.616;10.032;2023-06-24T06:29:14;18.40;99.90
10873;DHT22;34586;53.616;10.032;2023-06-24T06:31:39;18.50;99.90
10873;DHT22;34586;53.616;10.032;2023-06-24T06:34:05;18.50;99.90
10873;DHT22;34586;53.616;10.032;2023-06-24T06:36:31;18.50;99.90
10873;DHT22;34586;53.616;10.032;2023-06-24T06:38:56;18.60;93.90
10873;DHT22;34586;53.616;10.032;2023-06-24T06:41:22;18.60;71.00
10873;DHT22;34586;53.616;10.032;2023-06-24T06:43:52;18.50;91.70
10873;DHT22;34586;53.616;10.032;2023-06-24T06:46:18;18.60;52.30
10873;DHT22;34586;53.616;10.032;2023-06-24T06:48:43;18.50;1.00
10873;DHT22;34586;53.616;10.032;2023-06-24T06:51:09;18.50;78.40
10873;DHT22;34586;53.616;10.032;2023-06-24T06:53:34;18.50;28.90
10873;DHT22;34586;53.616;10.032;2023-06-24T06:56:00;18.70;39.00
10873;DHT22;34586;53.616;10.032;2023-06-24T06:58:26;18.90;1.00
10873;DHT22;34586;53.616;10.032;2023-06-24T07:00:51;19.00;1.00
10873;DHT22;34586;53.616;10.032;2023-06-24T07:03:17;18.90;1.00
10873;DHT22;34586;53.616;10.032;2023-06-24T07:05:43;18.90;1.00
10873;DHT22;34586;53.616;10.032;2023-06-24T07:08:08;18.90;1.00
10873;DHT22;34586;53.616;10.032;2023-06-24T07:10:34;18.90;99.90
10873;DHT22;34586;53.616;10.032;2023-06-24T07:13:00;18.90;1.00
10873;DHT22;34586;53.616;10.032;2023-06-24T07:15:26;18.90;1.00
10873;DHT22;34586;53.616;10.032;2023-06-24T07:17:52;18.90;99.90
10873;DHT22;34586;53.616;10.032;2023-06-24T07:20:19;18.90;1.00
10873;DHT22;34586;53.616;10.032;2023-06-24T07:22:44;19.00;1.00
10873;DHT22;34586;53.616;10.032;2023-06-24T07:25:11;19.00;10.80
10873;DHT22;34586;53.616;10.032;2023-06-24T07:27:37;19.00;99.90
10873;DHT22;34586;53.616;10.032;2023-06-24T07:30:04;19.10;1.00
10873;DHT22;34586;53.616;10.032;2023-06-24T07:32:30;19.10;99.90
10873;DHT22;34586;53.616;10.032;2023-06-24T07:34:55;19.10;99.90
10873;DHT22;34586;53.616;10.032;2023-06-24T07:37:22;19.20;1.00
10873;DHT22;34586;53.616;10.032;2023-06-24T07:39:47;19.20;99.90
10873;DHT22;34586;53.616;10.032;2023-06-24T07:42:13;19.20;81.10
10873;DHT22;34586;53.616;10.032;2023-06-24T07:44:44;19.20;99.90
10873;DHT22;34586;53.616;10.032;2023-06-24T07:47:10;19.20;1.00
10873;DHT22;34586;53.616;10.032;2023-06-24T07:49:36;19.20;17.00
10873;DHT22;34586;53.616;10.032;2023-06-24T07:52:01;19.30;1.00
10873;DHT22;34586;53.616;10.032;2023-06-24T07:54:27;19.40;94.70
10873;DHT22;34586;53.616;10.032;2023-06-24T07:56:53;19.50;1.00
10873;DHT22;34586;53.616;10.032;2023-06-24T07:59:18;19.60;1.00
10873;DHT22;34586;53.616;10.032;2023-06-24T08:01:44;19.80;1.00
10873;DHT22;34586;53.616;10.032;2023-06-24T08:04:09;20.00;1.00
10873;DHT22;34586;53.616;10.032;2023-06-24T08:06:35;20.00;1.00
10873;DHT22;34586;53.616;10.032;2023-06-24T08:09:01;20.10;1.00
10873;DHT22;34586;53.616;10.032;2023-06-24T08:11:26;20.10;1.00
10873;DHT22;34586;53.616;10.032;2023-06-24T08:13:52;20.10;99.90
10873;DHT22;34586;53.616;10.032;2023-06-24T08:16:17;20.10;53.80
10873;DHT22;34586;53.616;10.032;2023-06-24T08:18:45;20.10;69.10
10873;DHT22;34586;53.616;10.032;2023-06-24T08:21:11;20.20;99.90
10873;DHT22;34586;53.616;10.032;2023-06-24T08:23:37;20.10;99.90
10873;DHT22;34586;53.616;10.032;2023-06-24T08:26:21;20.20;1.00
10873;DHT22;34586;53.616;10.032;2023-06-24T08:29:31;20.30;1.00
10873;DHT22;34586;53.616;10.032;2023-06-24T08:31:56;20.30;99.90
10873;DHT22;34586;53.616;10.032;2023-06-24T08:34:22;20.30;1.00
10873;DHT22;34586;53.616;10.032;2023-06-24T08:36:47;20.40;1.00
10873;DHT22;34586;53.616;10.032;2023-06-24T08:39:13;20.40;1.00
10873;DHT22;34586;53.616;10.032;2023-06-24T08:41:39;20.40;99.90
10873;DHT22;34586;53.616;10.032;2023-06-24T08:44:04;20.40;99.90
10873;DHT22;34586;53.616;10.032;2023-06-24T08:46:31;20.50;99.90
10873;DHT22;34586;53.616;10.032;2023-06-24T08:51:55;20.60;99.90
10873;DHT22;34586;53.616;10.032;2023-06-24T08:54:23;20.70;99.90
10873;DHT22;34586;53.616;10.032;2023-06-24T08:56:49;20.70;99.90
10873;DHT22;34586;53.616;10.032;2023-06-24T09:01:43;21.00;1.00
10873;DHT22;34586;53.616;10.032;2023-06-24T09:04:08;20.80;1.00
10873;DHT22;34586;53.616;10.032;2023-06-24T09:06:34;20.90;1.00
10873;DHT22;34586;53.616;10.032;2023-06-24T09:08:59;21.00;99.90
10873;DHT22;34586;53.616;10.032;2023-06-24T09:11:27;21.00;99.90
10873;DHT22;34586;53.616;10.032;2023-06-24T09:13:59;21.10;99.90
10873;DHT22;34586;53.616;10.032;2023-06-24T09:16:26;21.00;99.90
10873;DHT22;34586;53.616;10.032;2023-06-24T09:18:52;21.10;99.90
10873;DHT22;34586;53.616;10.032;2023-06-24T09:21:28;21.20;99.90
10873;DHT22;34586;53.616;10.032;2023-06-24T09:23:57;21.20;5.40
10873;DHT22;34586;53.616;10.032;2023-06-24T09:26:24;21.20;38.20
10873;DHT22;34586;53.616;10.032;2023-06-24T09:28:50;21.30;88.00
10873;DHT22;34586;53.616;10.032;2023-06-24T09:31:17;21.20;99.90
10873;DHT22;34586;53.616;10.032;2023-06-24T09:33:43;21.30;65.50
10873;DHT22;34586;53.616;10.032;2023-06-24T09:36:13;21.40;99.90
10873;DHT22;34586;53.616;10.032;2023-06-24T09:38:41;21.40;99.90
10873;DHT22;34586;53.616;10.032;2023-06-24T09:41:08;21.40;1.00
10873;DHT22;34586;53.616;10.032;2023-06-24T09:43:35;21.50;17.70
10873;DHT22;34586;53.616;10.032;2023-06-24T09:46:08;21.60;1.00
10873;DHT22;34586;53.616;10.032;2023-06-24T09:48:34;21.60;36.80
10873;DHT22;34586;53.616;10.032;2023-06-24T09:51:01;21.60;1.00
10873;DHT22;34586;53.616;10.032;2023-06-24T09:53:31;21.60;1.00
10873;DHT22;34586;53.616;10.032;2023-06-24T09:56:03;21.70;99.90
10873;DHT22;34586;53.616;10.032;2023-06-24T09:58:31;21.80;29.50
10873;DHT22;34586;53.616;10.032;2023-06-24T10:01:02;21.80;1.00
10873;DHT22;34586;53.616;10.032;2023-06-24T10:03:29;21.80;63.60
10873;DHT22;34586;53.616;10.032;2023-06-24T10:05:57;21.80;1.00
10873;DHT22;34586;53.616;10.032;2023-06-24T10:08:23;21.80;1.00
10873;DHT22;34586;53.616;10.032;2023-06-24T10:10:48;21.90;17.20
10873;DHT22;34586;53.616;10.032;2023-06-24T10:13:36;21.90;1.00
10873;DHT22;34586;53.616;10.032;2023-06-24T10:16:02;22.00;1.00
10873;DHT22;34586;53.616;10.032;2023-06-24T10:20:56;22.00;1.00
10873;DHT22;34586;53.616;10.032;2023-06-24T10:23:23;22.10;16.20
10873;DHT22;34586;53.616;10.032;2023-06-24T10:25:48;22.20;1.00
10873;DHT22;34586;53.616;10.032;2023-06-24T10:28:14;22.30;1.00
10873;DHT22;34586;53.616;10.032;2023-06-24T10:30:39;22.30;1.00
10873;DHT22;34586;53.616;10.032;2023-06-24T10:33:19;22.30;1.00
10873;DHT22;34586;53.616;10.032;2023-06-24T10:35:44;22.30;1.00
10873;DHT22;34586;53.616;10.032;2023-06-24T10:38:10;22.30;1.00
10873;DHT22;34586;53.616;10.032;2023-06-24T10:40:41;22.40;1.00
10873;DHT22;34586;53.616;10.032;2023-06-24T10:45:55;22.70;1.00
10873;DHT22;34586;53.616;10.032;2023-06-24T10:48:21;22.80;1.00
10873;DHT22;34586;53.616;10.032;2023-06-24T10:50:48;22.90;1.00
10873;DHT22;34586;53.616;10.032;2023-06-24T10:53:15;23.00;1.00
10873;DHT22;34586;53.616;10.032;2023-06-24T10:55:41;23.10;1.00
10873;DHT22;34586;53.616;10.032;2023-06-24T10:58:09;23.20;1.00
10873;DHT22;34586;53.616;10.032;2023-06-24T11:00:37;23.20;99.90
10873;DHT22;34586;53.616;10.032;2023-06-24T11:03:14;23.30;1.00
10873;DHT22;34586;53.616;10.032;2023-06-24T11:05:41;23.30;1.00
10873;DHT22;34586;53.616;10.032;2023-06-24T11:08:07;23.50;1.00
10873;DHT22;34586;53.616;10.032;2023-06-24T11:10:33;23.60;99.90
10873;DHT22;34586;53.616;10.032;2023-06-24T11:13:05;23.60;1.00
10873;DHT22;34586;53.616;10.032;2023-06-24T11:15:32;23.80;1.00
10873;DHT22;34586;53.616;10.032;2023-06-24T11:17:58;23.90;99.90
10873;DHT22;34586;53.616;10.032;2023-06-24T11:20:23;24.00;99.90
10873;DHT22;34586;53.616;10.032;2023-06-24T11:22:49;24.00;98.60
10873;DHT22;34586;53.616;10.032;2023-06-24T11:25:17;24.00;99.90
10873;DHT22;34586;53.616;10.032;2023-06-24T11:27:43;24.20;99.90
10873;DHT22;34586;53.616;10.032;2023-06-24T11:30:08;24.40;99.90
10873;DHT22;34586;53.616;10.032;2023-06-24T11:32:37;24.50;1.00
10873;DHT22;34586;53.616;10.032;2023-06-24T11:35:08;24.60;1.00
10873;DHT22;34586;53.616;10.032;2023-06-24T11:37:34;24.60;99.90
10873;DHT22;34586;53.616;10.032;2023-06-24T11:40:05;24.80;99.90
10873;DHT22;34586;53.616;10.032;2023-06-24T11:42:32;25.20;85.10
10873;DHT22;34586;53.616;10.032;2023-06-24T11:45:02;25.40;95.10
10873;DHT22;34586;53.616;10.032;2023-06-24T11:47:34;25.50;1.00
10873;DHT22;34586;53.616;10.032;2023-06-24T11:50:01;25.50;99.90
10873;DHT22;34586;53.616;10.032;2023-06-24T11:52:49;25.60;8.50
10873;DHT22;34586;53.616;10.032;2023-06-24T12:00:25;26.00;99.90
10873;DHT22;34586;53.616;10.032;2023-06-24T12:02:53;26.10;99.90
10873;DHT22;34586;53.616;10.032;2023-06-24T12:05:30;26.30;99.90
10873;DHT22;34586;53.616;10.032;2023-06-24T12:08:01;26.00;1.00
10873;DHT22;34586;53.616;10.032;2023-06-24T12:10:28;26.20;1.00
10873;DHT22;34586;53.616;10.032;2023-06-24T12:12:55;26.30;99.90
10873;DHT22;34586;53.616;10.032;2023-06-24T12:15:21;26.20;99.90
10873;DHT22;34586;53.616;10.032;2023-06-24T12:17:46;26.60;1.00
10873;DHT22;34586;53.616;10.032;2023-06-24T12:20:14;26.90;99.90
10873;DHT22;34586;53.616;10.032;2023-06-24T12:22:40;27.10;99.90
10873;DHT22;34586;53.616;10.032;2023-06-24T12:25:06;27.20;99.90
10873;DHT22;34586;53.616;10.032;2023-06-24T12:27:32;26.90;99.90
10873;DHT22;34586;53.616;10.032;2023-06-24T12:29:59;26.60;99.90
10873;DHT22;34586;53.616;10.032;2023-06-24T12:32:24;26.70;99.90
10873;DHT22;34586;53.616;10.032;2023-06-24T12:34:50;27.70;99.90
10873;DHT22;34586;53.616;10.032;2023-06-24T12:37:15;29.40;1.00
10873;DHT22;34586;53.616;10.032;2023-06-24T12:39:41;29.90;99.90
10873;DHT22;34586;53.616;10.032;2023-06-24T12:42:07;29.80;99.90
10873;DHT22;34586;53.616;10.032;2023-06-24T12:44:32;29.90;99.90
10873;DHT22;34586;53.616;10.032;2023-06-24T12:46:58;30.40;99.90
10873;DHT22;34586;53.616;10.032;2023-06-24T12:49:23;30.50;99.90
10873;DHT22;34586;53.616;10.032;2023-06-24T12:51:49;31.30;99.90
10873;DHT22;34586;53.616;10.032;2023-06-24T12:54:14;30.90;99.90
10873;DHT22;34586;53.616;10.032;2023-06-24T12:56:40;29.90;99.90
10873;DHT22;34586;53.616;10.032;2023-06-24T12:59:06;29.30;99.90
10873;DHT22;34586;53.616;10.032;2023-06-24T13:01:31;28.60;99.90
10873;DHT22;34586;53.616;10.032;2023-06-24T13:03:57;28.10;99.90
10873;DHT22;34586;53.616;10.032;2023-06-24T13:06:22;28.00;99.90
10873;DHT22;34586;53.616;10.032;2023-06-24T13:08:48;28.60;99.90
10873;DHT22;34586;53.616;10.032;2023-06-24T13:11:14;29.00;99.90
10873;DHT22;34586;53.616;10.032;2023-06-24T13:13:39;28.70;99.90
10873;DHT22;34586;53.616;10.032;2023-06-24T13:16:27;28.20;99.90
10873;DHT22;34586;53.616;10.032;2023-06-24T13:18:52;27.80;99.90
10873;DHT22;34586;53.616;10.032;2023-06-24T13:21:18;27.70;99.90
10873;DHT22;34586;53.616;10.032;2023-06-24T13:23:44;27.60;99.90
10873;DHT22;34586;53.616;10.032;2023-06-24T13:26:11;27.60;99.90
10873;DHT22;34586;53.616;10.032;2023-06-24T13:28:37;27.60;99.90
10873;DHT22;34586;53.616;10.032;2023-06-24T13:31:03;28.00;99.90
10873;DHT22;34586;53.616;10.032;2023-06-24T13:33:28;28.90;99.90
10873;DHT22;34586;53.616;10.032;2023-06-24T13:35:55;29.90;99.90
10873;DHT22;34586;53.616;10.032;2023-06-24T13:38:21;30.70;99.90
10873;DHT22;34586;53.616;10.032;2023-06-24T13:40:47;31.90;99.90
10873;DHT22;34586;53.616;10.032;2023-06-24T13:43:13;31.80;99.90
10873;DHT22;34586;53.616;10.032;2023-06-24T13:45:38;31.50;99.90
10873;DHT22;34586;53.616;10.032;2023-06-24T13:48:04;30.70;99.90
10873;DHT22;34586;53.616;10.032;2023-06-24T13:50:29;30.00;99.90
10873;DHT22;34586;53.616;10.032;2023-06-24T13:52:55;30.30;99.90
10873;DHT22;34586;53.616;10.032;2023-06-24T13:55:21;30.40;99.90
10873;DHT22;34586;53.616;10.032;2023-06-24T13:57:47;30.60;99.90
10873;DHT22;34586;53.616;10.032;2023-06-24T14:00:13;31.10;99.90
10873;DHT22;34586;53.616;10.032;2023-06-24T14:02:40;31.20;99.90
10873;DHT22;34586;53.616;10.032;2023-06-24T14:05:06;31.50;99.90
10873;DHT22;34586;53.616;10.032;2023-06-24T14:07:32;31.80;99.90
10873;DHT22;34586;53.616;10.032;2023-06-24T14:09:57;32.30;99.90
10873;DHT22;34586;53.616;10.032;2023-06-24T14:12:23;32.50;99.90
10873;DHT22;34586;53.616;10.032;2023-06-24T14:14:48;32.50;99.90
10873;DHT22;34586;53.616;10.032;2023-06-24T14:17:14;32.40;99.90
10873;DHT22;34586;53.616;10.032;2023-06-24T14:19:40;32.60;99.90
10873;DHT22;34586;53.616;10.032;2023-06-24T14:22:06;32.00;99.90
10873;DHT22;34586;53.616;10.032;2023-06-24T14:24:32;31.30;99.90
10873;DHT22;34586;53.616;10.032;2023-06-24T14:26:58;30.50;99.90
10873;DHT22;34586;53.616;10.032;2023-06-24T14:29:24;29.90;99.90
10873;DHT22;34586;53.616;10.032;2023-06-24T14:31:51;29.30;99.90
10873;DHT22;34586;53.616;10.032;2023-06-24T14:34:17;28.80;99.90
10873;DHT22;34586;53.616;10.032;2023-06-24T14:36:43;28.70;99.90
10873;DHT22;34586;53.616;10.032;2023-06-24T14:39:09;29.00;99.90
10873;DHT22;34586;53.616;10.032;2023-06-24T14:41:35;29.40;99.90
10873;DHT22;34586;53.616;10.032;2023-06-24T14:44:00;29.20;99.90
10873;DHT22;34586;53.616;10.032;2023-06-24T14:46:26;29.00;99.90
10873;DHT22;34586;53.616;10.032;2023-06-24T14:48:51;28.90;99.90
10873;DHT22;34586;53.616;10.032;2023-06-24T14:51:17;28.80;99.90
10873;DHT22;34586;53.616;10.032;2023-06-24T14:53:42;28.80;99.90
10873;DHT22;34586;53.616;10.032;2023-06-24T14:56:08;29.10;99.90
10873;DHT22;34586;53.616;10.032;2023-06-24T14:58:33;29.70;99.90
10873;DHT22;34586;53.616;10.032;2023-06-24T15:00:59;30.00;99.90
10873;DHT22;34586;53.616;10.032;2023-06-24T15:03:25;30.00;99.90
10873;DHT22;34586;53.616;10.032;2023-06-24T15:05:50;29.50;99.90
10873;DHT22;34586;53.616;10.032;2023-06-24T15:08:16;29.10;99.90
10873;DHT22;34586;53.616;10.032;2023-06-24T15:10:41;28.80;99.90
10873;DHT22;34586;53.616;10.032;2023-06-24T15:13:07;28.50;99.90
10873;DHT22;34586;53.616;10.032;2023-06-24T15:15:33;28.40;99.90
10873;DHT22;34586;53.616;10.032;2023-06-24T15:17:58;28.60;99.90
10873;DHT22;34586;53.616;10.032;2023-06-24T15:20:25;28.50;99.90
10873;DHT22;34586;53.616;10.032;2023-06-24T15:22:51;28.30;99.90
10873;DHT22;34586;53.616;10.032;2023-06-24T15:25:16;28.10;99.90
10873;DHT22;34586;53.616;10.032;2023-06-24T15:27:42;28.00;99.90
10873;DHT22;34586;53.616;10.032;2023-06-24T15:30:08;27.90;99.90
10873;DHT22;34586;53.616;10.032;2023-06-24T15:32:33;28.00;99.90
10873;DHT22;34586;53.616;10.032;2023-06-24T15:35:02;28.20;99.90
10873;DHT22;34586;53.616;10.032;2023-06-24T15:37:28;28.40;99.90
10873;DHT22;34586;53.616;10.032;2023-06-24T15:39:54;28.30;99.90
10873;DHT22;34586;53.616;10.032;2023-06-24T15:42:20;28.50;99.90